createdAt,value
2022-10-22T00:03:02.836Z,6.60
2022-10-22T00:08:24.614Z,6.80
2022-10-22T00:19:15.051Z,7.30
2022-10-22T00:24:37.826Z,6.70
2022-10-22T00:29:59.666Z,7.40
2022-10-22T00:35:21.238Z,7.00
2022-10-22T00:40:43.415Z,6.60
2022-10-22T00:46:05.445Z,6.40
2022-10-22T00:51:29.783Z,6.40
2022-10-22T00:56:51.168Z,6.50
2022-10-22T01:02:13.037Z,6.00
2022-10-22T01:07:40.283Z,7.00
2022-10-22T01:13:15.059Z,6.50
2022-10-22T01:18:42.913Z,8.00
2022-10-22T01:24:12.368Z,9.20
2022-10-22T01:29:37.854Z,9.60
2022-10-22T01:35:06.943Z,10.80
2022-10-22T01:40:29.796Z,10.00
2022-10-22T01:45:58.602Z,9.30
2022-10-22T01:51:26.301Z,9.40
2022-10-22T01:56:54.953Z,9.70
2022-10-22T02:02:32.037Z,9.70
2022-10-22T02:08:03.604Z,10.50
2022-10-22T02:13:28.848Z,9.60
2022-10-22T02:18:53.910Z,9.70
2022-10-22T02:24:16.412Z,8.50
2022-10-22T02:35:42.024Z,10.90
2022-10-22T02:41:04.146Z,9.20
2022-10-22T02:46:25.846Z,8.90
2022-10-22T02:51:50.414Z,9.80
2022-10-22T02:57:12.226Z,7.80
2022-10-22T03:02:34.374Z,8.40
2022-10-22T03:07:55.986Z,9.20
2022-10-22T03:13:17.966Z,9.80
2022-10-22T03:18:39.915Z,8.70
2022-10-22T03:24:09.506Z,9.00
2022-10-22T03:29:32.249Z,8.50
2022-10-22T03:34:54.097Z,8.70
2022-10-22T03:40:16.108Z,8.80
2022-10-22T03:50:59.764Z,7.60
2022-10-22T03:56:21.699Z,7.10
2022-10-22T04:01:43.426Z,7.50
2022-10-22T04:07:06.158Z,7.30
2022-10-22T04:12:27.585Z,6.50
2022-10-22T04:17:49.452Z,8.00
2022-10-22T04:23:11.442Z,9.80
2022-10-22T04:28:34.424Z,12.80
2022-10-22T04:33:58.009Z,9.90
2022-10-22T04:39:19.324Z,11.10
2022-10-22T04:44:41.070Z,8.20
2022-10-22T04:50:02.726Z,8.90
2022-10-22T04:55:24.292Z,8.00
2022-10-22T05:00:46.360Z,7.10
2022-10-22T05:06:08.641Z,7.00
2022-10-22T05:11:33.934Z,7.70
2022-10-22T05:16:55.858Z,6.80
2022-10-22T05:22:17.630Z,7.40
2022-10-22T05:27:39.385Z,7.40
2022-10-22T05:33:01.106Z,8.40
2022-10-22T05:38:23.290Z,6.70
2022-10-22T05:43:45.400Z,7.50
2022-10-22T05:49:07.832Z,8.30
2022-10-22T05:54:29.760Z,7.80
2022-10-22T05:59:51.693Z,8.90
2022-10-22T06:05:13.247Z,10.10
2022-10-22T06:10:35.051Z,9.50
2022-10-22T06:15:56.775Z,8.10
2022-10-22T06:21:18.132Z,8.60
2022-10-22T06:26:40.217Z,8.10
2022-10-22T06:32:02.046Z,13.30
2022-10-22T06:37:23.928Z,14.20
2022-10-22T06:42:45.823Z,10.80
2022-10-22T06:48:07.450Z,13.80
2022-10-22T06:53:29.778Z,10.00
2022-10-22T06:58:52.911Z,11.00
2022-10-22T07:04:14.375Z,9.80
2022-10-22T07:09:36.268Z,9.90
2022-10-22T07:14:58.007Z,10.40
2022-10-22T07:20:21.833Z,10.00
2022-10-22T07:25:43.563Z,9.90
2022-10-22T07:31:06.193Z,9.60
2022-10-22T07:36:28.123Z,9.90
2022-10-22T07:41:49.751Z,9.00
2022-10-22T07:47:11.820Z,8.50
2022-10-22T07:52:34.120Z,11.30
2022-10-22T07:57:55.923Z,10.20
2022-10-22T08:03:18.482Z,10.20
2022-10-22T08:08:40.840Z,9.90
2022-10-22T08:14:02.400Z,7.70
2022-10-22T08:19:24.063Z,8.40
2022-10-22T08:24:46.691Z,9.50
2022-10-22T08:30:09.563Z,8.20
2022-10-22T08:35:32.222Z,8.40
2022-10-22T08:41:01.336Z,9.30
2022-10-22T08:46:34.281Z,9.00
2022-10-22T08:51:58.013Z,9.40
2022-10-22T09:03:29.139Z,9.30
2022-10-22T09:08:52.794Z,10.10
2022-10-22T09:14:17.471Z,10.90
2022-10-22T09:20:01.425Z,11.70
2022-10-22T09:25:27.522Z,11.10
2022-10-22T09:30:49.229Z,15.70
2022-10-22T09:36:17.695Z,13.00
2022-10-22T09:47:05.117Z,11.70
2022-10-22T09:52:28.952Z,12.30
2022-10-22T09:57:55.690Z,14.10
2022-10-22T10:03:37.645Z,10.40
2022-10-22T10:09:03.325Z,12.40
2022-10-22T10:14:40.623Z,13.40
2022-10-22T10:20:17.305Z,15.60
2022-10-22T10:25:49.721Z,13.50
2022-10-22T10:31:17.380Z,14.30
2022-10-22T10:36:56.653Z,15.30
2022-10-22T10:42:22.952Z,13.80
2022-10-22T10:48:10.275Z,13.30
2022-10-22T10:53:47.994Z,13.90
2022-10-22T10:59:50.631Z,12.80
2022-10-22T11:05:21.465Z,11.40
2022-10-22T11:10:50.647Z,13.40
2022-10-22T11:16:31.360Z,13.00
2022-10-22T11:22:05.255Z,12.60
2022-10-22T11:27:32.112Z,13.40
2022-10-22T11:32:56.699Z,11.80
2022-10-22T11:38:22.987Z,12.20
2022-10-22T11:44:01.931Z,13.70
2022-10-22T11:49:41.980Z,17.00
2022-10-22T11:55:48.522Z,13.40
2022-10-22T12:01:09.832Z,14.40
2022-10-22T12:06:53.408Z,12.10
2022-10-22T12:12:16.074Z,10.90
2022-10-22T12:17:37.806Z,11.20
2022-10-22T12:23:00.200Z,12.00
2022-10-22T12:28:22.866Z,13.10
2022-10-22T12:33:44.898Z,16.40
2022-10-22T12:39:18.488Z,16.80
2022-10-22T12:44:40.523Z,15.50
2022-10-22T12:50:03.831Z,15.20
2022-10-22T12:55:26.137Z,14.40
2022-10-22T13:00:48.523Z,16.10
2022-10-22T13:06:19.748Z,17.10
2022-10-22T13:12:01.755Z,17.80
2022-10-22T13:17:41.023Z,16.80
2022-10-22T13:23:05.687Z,15.40
2022-10-22T13:28:27.646Z,15.70
2022-10-22T13:33:58.123Z,18.40
2022-10-22T13:39:24.622Z,16.70
2022-10-22T13:44:46.548Z,16.00
2022-10-22T13:50:17.905Z,17.80
2022-10-22T13:55:39.492Z,16.30
2022-10-22T14:01:02.663Z,16.80
2022-10-22T14:06:28.596Z,15.30
2022-10-22T14:11:50.230Z,19.60
2022-10-22T14:17:16.889Z,18.70
2022-10-22T14:22:38.725Z,17.00
2022-10-22T14:28:00.247Z,18.50
2022-10-22T14:33:29.036Z,18.90
2022-10-22T14:38:53.740Z,18.40
2022-10-22T14:44:15.468Z,21.70
2022-10-22T14:49:37.052Z,19.70
2022-10-22T14:54:59.060Z,18.00
2022-10-22T15:00:23.031Z,19.60
2022-10-22T15:05:45.104Z,24.00
2022-10-22T15:11:08.927Z,21.70
2022-10-22T15:16:30.657Z,25.20
2022-10-22T15:21:52.588Z,22.60
2022-10-22T15:27:14.767Z,19.60
2022-10-22T15:32:36.411Z,20.30
2022-10-22T15:37:58.372Z,22.60
2022-10-22T15:43:20.141Z,23.50
2022-10-22T15:48:41.926Z,20.50
2022-10-22T15:54:09.228Z,24.80
2022-10-22T15:59:32.228Z,23.10
2022-10-22T16:04:53.840Z,21.40
2022-10-22T16:10:15.932Z,37.20
2022-10-22T16:15:37.427Z,28.80
2022-10-22T16:20:59.127Z,25.20
2022-10-22T16:26:21.096Z,26.40
2022-10-22T16:31:45.691Z,25.60
2022-10-22T16:37:10.322Z,22.40
2022-10-22T16:42:32.519Z,26.80
2022-10-22T16:47:54.266Z,29.30
2022-10-22T16:53:15.849Z,33.40
2022-10-22T16:58:38.552Z,25.80
2022-10-22T17:04:00.996Z,29.10
2022-10-22T17:09:24.324Z,32.70
2022-10-22T17:14:46.206Z,41.10
2022-10-22T17:20:08.144Z,54.10
2022-10-22T17:25:37.194Z,37.70
2022-10-22T17:31:37.563Z,28.80
2022-10-22T17:37:00.372Z,38.10
2022-10-22T17:42:22.259Z,35.20
2022-10-22T17:47:44.039Z,30.00
2022-10-22T17:53:07.013Z,32.50
2022-10-22T17:58:31.258Z,31.50
2022-10-22T18:03:53.897Z,29.20
2022-10-22T18:09:18.873Z,30.20
2022-10-22T18:14:41.302Z,24.70
2022-10-22T18:20:02.604Z,23.00
2022-10-22T18:25:24.185Z,25.50
2022-10-22T18:30:47.248Z,21.80
2022-10-22T18:36:11.655Z,25.70
2022-10-22T18:41:33.885Z,24.10
2022-10-22T18:46:55.446Z,23.70
2022-10-22T18:52:17.474Z,24.70
2022-10-22T18:57:39.404Z,24.90
2022-10-22T19:03:01.444Z,27.30
2022-10-22T19:08:23.062Z,33.60
2022-10-22T19:13:44.447Z,22.40
2022-10-22T19:19:07.786Z,24.10
2022-10-22T19:24:29.963Z,21.60
2022-10-22T19:29:51.691Z,27.00
2022-10-22T19:35:13.379Z,19.30
2022-10-22T19:40:34.939Z,22.20
2022-10-22T19:45:56.870Z,24.50
2022-10-22T19:51:21.013Z,23.60
2022-10-22T19:56:42.400Z,22.50
2022-10-22T20:02:03.964Z,25.70
2022-10-22T20:07:25.604Z,27.70
2022-10-22T20:12:47.374Z,27.30
2022-10-22T20:18:09.047Z,26.30
2022-10-22T20:23:30.676Z,22.30
2022-10-22T20:28:52.483Z,24.10
2022-10-22T20:34:14.499Z,21.50
2022-10-22T20:39:37.245Z,21.50
2022-10-22T20:44:58.869Z,19.80
2022-10-22T20:50:21.472Z,21.70
2022-10-22T20:55:43.155Z,20.10
2022-10-22T21:01:10.586Z,19.20
2022-10-22T21:06:32.723Z,21.60
2022-10-22T21:17:20.986Z,19.20
2022-10-22T21:22:43.516Z,19.80
2022-10-22T21:28:05.403Z,22.00
2022-10-22T21:33:27.654Z,20.30
2022-10-22T21:38:49.134Z,22.30
2022-10-22T21:44:11.056Z,20.90
2022-10-22T21:49:33.166Z,21.10
2022-10-22T21:54:54.814Z,22.70
2022-10-22T22:00:21.323Z,25.40
2022-10-22T22:05:42.889Z,26.80
2022-10-22T22:11:10.843Z,26.60
2022-10-22T22:16:33.757Z,22.90
2022-10-22T22:21:55.501Z,21.10
2022-10-22T22:27:17.576Z,20.80
2022-10-22T22:32:39.307Z,19.10
2022-10-22T22:38:02.895Z,18.80
2022-10-22T22:43:24.923Z,17.20
2022-10-22T22:48:50.165Z,14.80
2022-10-22T22:54:11.839Z,17.10
2022-10-22T22:59:33.783Z,22.30
2022-10-22T23:04:55.551Z,33.00
2022-10-22T23:10:17.584Z,35.90
2022-10-22T23:15:40.378Z,29.60
2022-10-22T23:21:06.748Z,29.30
2022-10-22T23:26:31.216Z,29.40
2022-10-22T23:31:53.727Z,24.90
2022-10-22T23:37:15.557Z,29.00
2022-10-22T23:42:40.237Z,26.70
2022-10-22T23:48:02.224Z,21.10
2022-10-22T23:53:23.954Z,17.70
2022-10-22T23:58:45.639Z,17.90
